Time;durP1;ratioP1;P1;durP2;ratioP2;P2;SDS_P1;SDS_P2;PMS_P1;PMS_P2;Temp;Humidity;BMP_temperature;BMP_pressure;BME280_temperature;BME280_humidity;BME280_pressure;Samples;Min_cycle;Max_cycle;Signal;HPM_P1;HPM_P2
2023/11/04 00:01:38;;;;;;;2.90;2.70;;;;;;;8.11;100.00;98458.16;5082693;28;20048;-75
2023/11/04 00:04:04;;;;;;;3.83;2.60;;;;;;;8.10;100.00;98459.13;5084566;28;20074;-75
2023/11/04 00:06:29;;;;;;;2.58;2.38;;;;;;;8.15;100.00;98450.97;5080147;28;20113;-75
2023/11/04 00:08:55;;;;;;;2.92;2.72;;;;;;;8.14;100.00;98457.97;5079302;28;20024;-75
2023/11/04 00:11:21;;;;;;;5.05;2.70;;;;;;;8.14;100.00;98457.97;5086344;28;20074;-75
2023/11/04 00:13:47;;;;;;;3.40;3.10;;;;;;;8.18;100.00;98448.97;5072267;28;20045;-74
2023/11/04 00:16:13;;;;;;;5.10;2.70;;;;;;;8.17;100.00;98442.13;5077823;28;20332;-75
2023/11/04 00:18:38;;;;;;;4.57;2.83;;;;;;;8.18;100.00;98456.81;5085043;28;20036;-75
2023/11/04 00:21:07;;;;;;;6.50;3.75;;;;;;;8.20;100.00;98454.09;5079934;28;20275;-74
2023/11/04 00:23:32;;;;;;;6.57;2.90;;;;;;;8.24;100.00;98456.41;5081548;28;20040;-74
2023/11/04 00:25:58;;;;;;;4.32;3.10;;;;;;;8.22;100.00;98455.69;5075289;28;20100;-75
2023/11/04 00:28:23;;;;;;;2.90;2.70;;;;;;;8.27;100.00;98445.75;5073338;28;20055;-75
2023/11/04 00:30:49;;;;;;;4.72;3.03;;;;;;;8.25;100.00;98452.84;5075033;28;20082;-74
2023/11/04 00:33:15;;;;;;;3.38;2.90;;;;;;;8.26;100.00;98454.53;5081027;28;20192;-75
2023/11/04 00:35:41;;;;;;;4.63;3.17;;;;;;;8.26;100.00;98451.91;5096266;28;20091;-75
2023/11/04 00:38:06;;;;;;;5.60;2.90;;;;;;;8.27;100.00;98448.34;5090275;28;20032;-74
2023/11/04 00:40:31;;;;;;;5.97;2.85;;;;;;;8.31;100.00;98441.16;5096676;28;20055;-75
2023/11/04 00:42:57;;;;;;;3.75;3.15;;;;;;;8.30;100.00;98451.72;5097174;28;20054;-75
2023/11/04 00:45:22;;;;;;;2.97;2.78;;;;;;;8.29;100.00;98443.03;5085384;28;20037;-75
2023/11/04 00:47:48;;;;;;;8.93;3.88;;;;;;;8.32;100.00;98437.59;5094342;28;20046;-75
2023/11/04 00:50:14;;;;;;;3.25;2.95;;;;;;;8.34;100.00;98437.50;5086051;28;20056;-74
2023/11/04 00:52:39;;;;;;;3.03;2.83;;;;;;;8.35;100.00;98431.34;5086734;28;20035;-75
2023/11/04 00:55:05;;;;;;;6.68;3.63;;;;;;;8.34;100.00;98434.91;5087964;28;20036;-75
2023/11/04 00:57:30;;;;;;;6.68;3.60;;;;;;;8.33;100.00;98435.81;5089379;28;20402;-75
2023/11/04 00:59:56;;;;;;;6.00;3.67;;;;;;;8.35;100.00;98434.81;5089521;28;20032;-75
2023/11/04 01:02:21;;;;;;;4.80;3.40;;;;;;;8.38;100.00;98441.56;5097026;28;20035;-75
2023/11/04 01:04:47;;;;;;;3.55;3.25;;;;;;;8.41;100.00;98443.97;5097012;28;20201;-74
2023/11/04 01:07:12;;;;;;;4.15;3.70;;;;;;;8.42;100.00;98436.06;5097288;28;20035;-75
2023/11/04 01:09:37;;;;;;;7.47;3.90;;;;;;;8.41;100.00;98436.97;5097022;28;20231;-75
2023/11/04 01:12:04;;;;;;;4.25;3.65;;;;;;;8.44;100.00;98441.16;5097180;28;20032;-75
2023/11/04 01:14:29;;;;;;;3.50;3.20;;;;;;;8.44;100.00;98436.78;5096960;28;20306;-75
2023/11/04 01:16:54;;;;;;;4.95;4.20;;;;;;;8.48;100.00;98436.56;5096918;28;20098;-75
2023/11/04 01:19:20;;;;;;;5.20;3.15;;;;;;;8.50;100.00;98440.75;5096939;28;20410;-75
2023/11/04 01:21:45;;;;;;;10.77;3.78;;;;;;;8.49;100.00;98438.22;5096704;28;20073;-75
2023/11/04 01:24:10;;;;;;;6.13;4.47;;;;;;;8.50;100.00;98437.31;5096931;28;20046;-75
2023/11/04 01:26:36;;;;;;;6.70;4.30;;;;;;;8.51;100.00;98431.13;5096802;28;20264;-75
2023/11/04 01:29:01;;;;;;;4.10;3.80;;;;;;;8.51;100.00;98436.34;5096870;28;20086;-75
2023/11/04 01:31:27;;;;;;;3.67;3.38;;;;;;;8.53;100.00;98440.53;5096176;28;20104;-75
2023/11/04 01:33:52;;;;;;;7.38;3.70;;;;;;;8.53;100.00;98442.28;5096900;28;20302;-75
2023/11/04 01:36:18;;;;;;;6.65;4.45;;;;;;;8.56;100.00;98445.50;5096702;28;20031;-75
2023/11/04 01:38:43;;;;;;;7.20;4.10;;;;;;;8.59;100.00;98439.25;5096624;28;20081;-75
2023/11/04 01:41:09;;;;;;;6.38;4.05;;;;;;;8.57;100.00;98435.94;5096836;28;20039;-75
2023/11/04 01:43:34;;;;;;;4.60;4.10;;;;;;;8.58;100.00;98437.59;5095849;28;20032;-75
2023/11/04 01:46:11;;;;;;;3.65;3.35;;;;;;;8.62;100.00;98424.22;5096741;28;20315;-75
2023/11/04 01:48:40;;;;;;;4.80;4.10;;;;;;;8.63;100.00;98425.88;5096353;28;20043;-74
2023/11/04 01:51:05;;;;;;;;;;;;;;;8.62;100.00;98426.84;5096721;28;20028;-75
2023/11/04 01:53:32;;;;;;;5.88;4.43;;;;;;;8.62;100.00;98429.44;5095912;28;19948;-74
2023/11/04 01:55:59;;;;;;;6.38;4.90;;;;;;;8.62;100.00;98420.75;5096480;28;20205;-75
2023/11/04 01:58:26;;;;;;;8.07;4.70;;;;;;;8.61;100.00;98426.94;5095872;28;20070;-75
2023/11/04 02:00:52;;;;;;;6.72;4.60;;;;;;;8.60;100.00;98423.50;5096291;28;20060;-74
2023/11/04 02:03:17;;;;;;;11.30;4.82;;;;;;;8.60;100.00;98417.44;5096241;28;20035;-75
2023/11/04 02:05:42;;;;;;;6.30;4.35;;;;;;;8.63;100.00;98407.63;5095905;28;20347;-75
2023/11/04 02:08:09;;;;;;;10.60;5.30;;;;;;;8.62;100.00;98413.78;5096516;28;20036;-75
2023/11/04 02:10:34;;;;;;;7.18;5.03;;;;;;;8.59;100.00;98413.19;5096198;28;20384;-75
2023/11/04 02:13:00;;;;;;;7.97;5.28;;;;;;;8.60;100.00;98414.81;5096293;28;20024;-75
2023/11/04 02:15:26;;;;;;;7.13;4.60;;;;;;;8.59;100.00;98414.00;5095448;28;20280;-75
2023/11/04 02:17:51;;;;;;;8.00;5.05;;;;;;;8.58;100.00;98409.72;5077704;28;20036;-75
2023/11/04 02:20:20;;;;;;;6.45;4.50;;;;;;;8.62;100.00;98410.31;5095868;28;20115;-75
2023/11/04 02:22:46;;;;;;;6.80;4.45;;;;;;;8.58;100.00;98407.09;5095549;28;20060;-75
2023/11/04 02:25:11;;;;;;;10.20;4.50;;;;;;;8.58;100.00;98401.88;5095390;28;20027;-75
2023/11/04 02:27:37;;;;;;;6.57;4.25;;;;;;;8.60;100.00;98413.06;5095802;28;20119;-75
2023/11/04 02:30:03;;;;;;;7.78;4.40;;;;;;;8.59;100.00;98413.19;5095852;28;20112;-74
2023/11/04 02:32:30;;;;;;;6.55;4.13;;;;;;;8.58;100.00;98404.50;5094572;28;20285;-75
2023/11/04 02:34:56;;;;;;;10.38;4.03;;;;;;;8.60;100.00;98404.38;5096060;28;20089;-75
2023/11/04 02:37:21;;;;;;;5.00;3.70;;;;;;;8.62;100.00;98413.78;5095422;28;20089;-75
2023/11/04 02:39:46;;;;;;;6.38;3.97;;;;;;;8.60;100.00;98401.78;5095300;28;20039;-75
2023/11/04 02:42:12;;;;;;;4.15;3.75;;;;;;;8.61;100.00;98393.84;5095187;28;20054;-75
2023/11/04 02:44:37;;;;;;;5.68;4.45;;;;;;;8.60;100.00;98394.81;5095226;28;20036;-75
2023/11/04 02:47:03;;;;;;;6.22;4.85;;;;;;;8.59;100.00;98393.13;5095263;28;20059;-75
2023/11/04 02:49:28;;;;;;;5.70;4.55;;;;;;;8.60;100.00;98399.16;5095025;28;20036;-75
2023/11/04 02:51:53;;;;;;;6.63;3.85;;;;;;;8.59;100.00;98395.75;5095482;28;20510;-75
2023/11/04 02:54:19;;;;;;;7.40;4.13;;;;;;;8.59;100.00;98393.13;5095457;28;20212;-75
2023/11/04 02:56:44;;;;;;;5.95;4.22;;;;;;;8.55;100.00;98391.69;5094199;28;20594;-75
2023/11/04 02:59:10;;;;;;;6.88;4.55;;;;;;;8.55;100.00;98380.41;5095400;28;20102;-75
2023/11/04 03:01:35;;;;;;;5.03;3.97;;;;;;;8.53;100.00;98388.38;5094643;28;20084;-74
2023/11/04 03:04:02;;;;;;;5.20;4.03;;;;;;;8.54;100.00;98379.56;5095139;28;20036;-75
2023/11/04 03:06:27;;;;;;;4.80;4.05;;;;;;;8.49;100.00;98371.25;5095249;28;20040;-75
2023/11/04 03:08:53;;;;;;;4.53;4.13;;;;;;;8.50;100.00;98375.53;5095058;28;20339;-75
2023/11/04 03:11:18;;;;;;;6.53;4.30;;;;;;;8.48;100.00;98368.72;5094868;28;20085;-75
2023/11/04 03:13:44;;;;;;;7.85;4.35;;;;;;;8.43;100.00;98363.88;5094868;28;20395;-75
2023/11/04 03:16:19;;;;;;;8.23;4.50;;;;;;;8.42;100.00;98359.56;5094334;28;20031;-75
2023/11/04 03:18:45;;;;;;;4.25;3.85;;;;;;;8.50;100.00;98364.28;5094647;28;20185;-75
2023/11/04 03:21:10;;;;;;;6.53;4.65;;;;;;;8.43;100.00;98362.09;5094755;28;20360;-75
2023/11/04 03:23:35;;;;;;;6.70;4.25;;;;;;;8.45;100.00;98361.97;5094538;28;20077;-75
2023/11/04 03:26:01;;;;;;;9.23;4.50;;;;;;;8.44;100.00;98365.50;5094358;28;20036;-75
2023/11/04 03:28:26;;;;;;;6.80;4.10;;;;;;;8.44;100.00;98362.91;5094531;28;20219;-75
2023/11/04 03:30:51;;;;;;;4.40;4.00;;;;;;;8.42;100.00;98365.66;5094491;28;20250;-75
2023/11/04 03:33:17;;;;;;;4.72;4.32;;;;;;;8.47;100.00;98365.31;5094074;28;20038;-75
2023/11/04 03:35:44;;;;;;;5.57;4.65;;;;;;;8.53;100.00;98366.63;5094501;28;20043;-74
2023/11/04 03:38:09;;;;;;;7.95;4.57;;;;;;;8.52;100.00;98363.19;5094260;28;20027;-75
2023/11/04 03:40:34;;;;;;;6.78;4.97;;;;;;;8.54;100.00;98361.31;5094498;28;20057;-74
2023/11/04 03:43:00;;;;;;;7.88;5.10;;;;;;;8.52;100.00;98354.56;5094466;28;20036;-75
2023/11/04 03:45:25;;;;;;;8.98;5.57;;;;;;;8.53;100.00;98345.78;5094275;28;20031;-75
2023/11/04 03:47:51;;;;;;;9.48;5.55;;;;;;;8.50;100.00;98343.41;5094313;28;20086;-75
2023/11/04 03:50:17;;;;;;;7.80;4.90;;;;;;;8.50;100.00;98346.00;5094536;28;20203;-75
2023/11/04 03:52:43;;;;;;;9.13;5.30;;;;;;;8.51;100.00;98345.03;5094250;28;20085;-75
2023/11/04 03:55:08;;;;;;;6.60;4.88;;;;;;;8.52;100.00;98349.34;5094577;28;20397;-74
2023/11/04 03:57:34;;;;;;;7.05;5.13;;;;;;;8.50;100.00;98341.63;5093953;28;20047;-74
2023/11/04 03:59:59;;;;;;;8.20;5.07;;;;;;;8.53;100.00;98346.63;5094340;28;20039;-74
2023/11/04 04:02:25;;;;;;;6.63;4.68;;;;;;;8.51;100.00;98345.03;5093858;28;20040;-74
2023/11/04 04:04:50;;;;;;;5.03;4.63;;;;;;;8.52;100.00;98338.91;5093843;28;20304;-75
2023/11/04 04:07:16;;;;;;;7.22;4.43;;;;;;;8.47;100.00;98341.81;5096334;28;20047;-74
2023/11/04 04:09:42;;;;;;;5.90;4.00;;;;;;;8.50;100.00;98327.75;5100509;28;20334;-74
2023/11/04 04:12:07;;;;;;;5.63;4.20;;;;;;;8.54;100.00;98327.41;5100830;28;20032;-74
2023/11/04 04:14:32;;;;;;;5.97;4.10;;;;;;;8.52;100.00;98329.28;5100850;28;20032;-74
2023/11/04 04:16:58;;;;;;;6.25;4.63;;;;;;;8.56;100.00;98329.91;5100742;28;20071;-74
2023/11/04 04:19:23;;;;;;;5.78;4.70;;;;;;;8.57;100.00;98324.56;5100854;28;20039;-74
2023/11/04 04:21:49;;;;;;;7.47;5.65;;;;;;;8.59;100.00;98329.69;5100611;28;20332;-74
2023/11/04 04:24:14;;;;;;;6.25;5.00;;;;;;;8.53;100.00;98323.16;5101165;28;20267;-74
2023/11/04 04:26:39;;;;;;;6.60;4.55;;;;;;;8.57;100.00;98313.31;5100871;28;20040;-74
2023/11/04 04:29:06;;;;;;;10.95;4.95;;;;;;;8.59;100.00;98317.47;5100524;28;20036;-74
2023/11/04 04:31:32;;;;;;;6.72;5.18;;;;;;;8.62;100.00;98314.66;5100392;28;20027;-74
2023/11/04 04:33:57;;;;;;;9.80;5.53;;;;;;;8.59;100.00;98306.22;5100742;28;20296;-74
2023/11/04 04:36:22;;;;;;;7.90;5.40;;;;;;;8.57;100.00;98311.53;5100551;28;20040;-74
2023/11/04 04:38:48;;;;;;;9.25;5.05;;;;;;;8.59;100.00;98314.03;5100557;28;20258;-74
2023/11/04 04:41:14;;;;;;;9.30;5.05;;;;;;;8.58;100.00;98309.75;5100750;28;20327;-74
2023/11/04 04:43:39;;;;;;;8.07;5.40;;;;;;;8.57;100.00;98311.53;5100767;28;20342;-75
2023/11/04 04:46:05;;;;;;;7.47;4.88;;;;;;;8.58;100.00;98304.53;5100650;28;20283;-75
2023/11/04 04:48:30;;;;;;;6.57;4.65;;;;;;;8.61;100.00;98307.75;5100402;28;20031;-74
2023/11/04 04:50:55;;;;;;;5.95;5.10;;;;;;;8.59;100.00;98296.59;5100963;28;20354;-74
2023/11/04 04:53:21;;;;;;;11.38;5.25;;;;;;;8.59;100.00;98288.78;5100652;28;20457;-75
2023/11/04 04:55:47;;;;;;;7.35;5.00;;;;;;;8.59;100.00;98290.56;5100840;28;20382;-75
2023/11/04 04:58:12;;;;;;;7.07;5.13;;;;;;;8.57;100.00;98301.09;5100577;28;20208;-75
2023/11/04 05:00:38;;;;;;;8.85;5.70;;;;;;;8.54;100.00;98298.69;5100151;28;20027;-74
2023/11/04 05:03:05;;;;;;;9.32;5.65;;;;;;;8.51;100.00;98282.44;5100154;28;20342;-75
2023/11/04 05:05:33;;;;;;;9.05;5.22;;;;;;;8.50;100.00;98279.00;5100316;28;20056;-74
2023/11/04 05:07:59;;;;;;;9.07;5.50;;;;;;;8.48;100.00;98283.50;5100471;28;20081;-74
2023/11/04 05:10:25;;;;;;;6.57;5.10;;;;;;;8.51;100.00;98278.06;5100331;28;20035;-74
2023/11/04 05:12:50;;;;;;;9.35;5.00;;;;;;;8.51;100.00;98272.00;5100294;28;20035;-75
2023/11/04 05:15:16;;;;;;;13.48;5.35;;;;;;;8.43;100.00;98268.19;5100417;28;20562;-74
2023/11/04 05:17:41;;;;;;;9.23;4.60;;;;;;;8.49;100.00;98274.72;5099814;28;20331;-74
2023/11/04 05:20:08;;;;;;;5.15;4.43;;;;;;;8.49;100.00;98268.69;5096524;28;20257;-75
2023/11/04 05:22:33;;;;;;;6.40;4.70;;;;;;;8.48;100.00;98272.22;5096592;28;20058;-75
2023/11/04 05:24:59;;;;;;;9.18;4.90;;;;;;;8.43;100.00;98267.34;5097223;28;20023;-74
2023/11/04 05:27:24;;;;;;;7.82;4.90;;;;;;;8.43;100.00;98262.97;5096911;28;20024;-74
2023/11/04 05:29:49;;;;;;;8.52;4.65;;;;;;;8.42;100.00;98263.06;5096789;28;20032;-75
2023/11/04 05:32:16;;;;;;;6.78;4.43;;;;;;;8.40;100.00;98257.97;5096559;28;20114;-75
2023/11/04 05:34:42;;;;;;;10.80;5.20;;;;;;;8.40;100.00;98257.97;5096574;28;20032;-75
2023/11/04 05:37:07;;;;;;;10.57;4.70;;;;;;;8.40;100.00;98262.31;5096678;28;20085;-75
2023/11/04 05:39:33;;;;;;;7.65;4.47;;;;;;;8.39;100.00;98255.47;5096831;28;20066;-74
2023/11/04 05:41:58;;;;;;;8.48;4.30;;;;;;;8.42;100.00;98255.25;5096701;28;20095;-75
2023/11/04 05:44:23;;;;;;;5.78;4.30;;;;;;;8.40;100.00;98244.06;5096603;28;20127;-75
2023/11/04 05:46:49;;;;;;;5.38;4.32;;;;;;;8.39;100.00;98234.59;5096155;28;20193;-75
2023/11/04 05:49:14;;;;;;;7.90;4.32;;;;;;;8.39;100.00;98234.59;5096372;28;20342;-75
2023/11/04 05:51:39;;;;;;;6.20;4.13;;;;;;;8.40;100.00;98226.66;5096250;28;20043;-75
2023/11/04 05:54:05;;;;;;;9.63;4.43;;;;;;;8.35;100.00;98236.59;5096325;28;20040;-75
2023/11/04 05:56:30;;;;;;;6.18;4.40;;;;;;;8.36;100.00;98235.63;5095835;28;20039;-75
2023/11/04 05:58:55;;;;;;;7.68;3.83;;;;;;;8.35;100.00;98220.94;5081414;28;20047;-75
2023/11/04 06:01:24;;;;;;;6.63;3.72;;;;;;;8.37;100.00;98218.25;5075811;28;20135;-75
2023/11/04 06:03:51;;;;;;;7.78;4.40;;;;;;;8.34;100.00;98218.44;5075578;28;20282;-75
2023/11/04 06:06:20;;;;;;;6.55;4.05;;;;;;;8.37;100.00;98213.03;5075813;28;20056;-75
2023/11/04 06:08:46;;;;;;;5.82;3.70;;;;;;;8.34;100.00;98208.84;5075941;28;20127;-75
2023/11/04 06:11:11;;;;;;;8.50;4.13;;;;;;;8.35;100.00;98202.69;5077871;28;20043;-75
2023/11/04 06:13:36;;;;;;;11.05;4.88;;;;;;;8.35;100.00;98201.84;5085520;28;20039;-75
2023/11/04 06:16:02;;;;;;;9.50;3.80;;;;;;;8.33;100.00;98194.16;5087135;28;20036;-75
2023/11/04 06:18:28;;;;;;;7.50;4.05;;;;;;;8.31;100.00;98196.03;5084690;28;20050;-75
2023/11/04 06:20:53;;;;;;;8.50;4.35;;;;;;;8.30;100.00;98196.97;5086751;28;20024;-74
2023/11/04 06:23:19;;;;;;;9.32;5.43;;;;;;;8.32;100.00;98200.31;5084861;28;20085;-74
2023/11/04 06:25:44;;;;;;;7.95;4.43;;;;;;;8.30;100.00;98191.75;5085335;28;20027;-75
2023/11/04 06:28:09;;;;;;;8.77;4.22;;;;;;;8.32;100.00;98183.84;5085586;28;20050;-75
2023/11/04 06:30:35;;;;;;;13.32;3.97;;;;;;;8.30;100.00;98183.13;5086962;28;20024;-75
2023/11/04 06:33:02;;;;;;;5.82;3.60;;;;;;;8.32;100.00;98192.47;5094005;28;20577;-75
2023/11/04 06:35:28;;;;;;;5.30;3.30;;;;;;;8.32;100.00;98189.88;5092662;28;20085;-75
2023/11/04 06:37:54;;;;;;;5.22;3.30;;;;;;;8.34;100.00;98181.94;5092237;28;20043;-75
2023/11/04 06:40:20;;;;;;;12.10;4.55;;;;;;;8.31;100.00;98189.97;5095590;28;20032;-74
2023/11/04 06:42:45;;;;;;;10.20;3.75;;;;;;;8.31;100.00;98195.19;5095156;28;20099;-75
2023/11/04 06:45:11;;;;;;;7.47;4.15;;;;;;;8.35;100.00;98194.03;5095383;28;20368;-75
2023/11/04 06:47:36;;;;;;;7.18;3.97;;;;;;;8.37;100.00;98192.16;5094588;28;20020;-75
2023/11/04 06:50:04;;;;;;;7.65;3.22;;;;;;;8.35;100.00;98186.19;5095877;28;20048;-75
2023/11/04 06:52:30;;;;;;;9.00;3.75;;;;;;;8.36;100.00;98191.31;5094565;28;20319;-75
2023/11/04 06:54:56;;;;;;;9.10;3.25;;;;;;;8.37;100.00;98192.97;5095301;28;20077;-74
2023/11/04 06:57:21;;;;;;;11.02;3.30;;;;;;;8.38;100.00;98199.84;5094939;28;20074;-75
2023/11/04 06:59:46;;;;;;;7.22;3.70;;;;;;;8.36;100.00;98175.66;5094775;28;20322;-75
2023/11/04 07:02:12;;;;;;;9.38;4.07;;;;;;;8.38;100.00;98180.75;5093196;28;20035;-75
2023/11/04 07:04:37;;;;;;;8.32;4.25;;;;;;;8.37;100.00;98179.13;5093248;28;20039;-75
2023/11/04 07:07:03;;;;;;;6.93;4.40;;;;;;;8.36;100.00;98175.66;5094664;28;20068;-75
2023/11/04 07:09:33;;;;;;;8.30;4.03;;;;;;;8.36;100.00;98164.41;5094244;28;20059;-75
2023/11/04 07:11:58;;;;;;;8.60;3.63;;;;;;;8.35;100.00;98178.38;5095010;28;20395;-74
2023/11/04 07:14:24;;;;;;;7.30;4.18;;;;;;;8.37;100.00;98171.28;5094640;28;20055;-75
2023/11/04 07:16:49;;;;;;;10.15;3.97;;;;;;;8.39;100.00;98172.81;5094232;28;20066;-75
2023/11/04 07:19:15;;;;;;;5.18;4.15;;;;;;;8.38;100.00;98163.34;5094962;28;20054;-75
2023/11/04 07:21:42;;;;;;;6.68;3.88;;;;;;;8.41;100.00;98157.91;5094345;28;20110;-75
2023/11/04 07:24:07;;;;;;;9.32;4.28;;;;;;;8.43;100.00;98143.00;5094491;28;20055;-74
2023/11/04 07:26:32;;;;;;;5.95;3.78;;;;;;;8.44;100.00;98131.63;5094135;28;20358;-75
2023/11/04 07:28:58;;;;;;;8.60;4.50;;;;;;;8.48;100.00;98127.00;5094422;28;20032;-75
2023/11/04 07:31:23;;;;;;;5.50;3.90;;;;;;;8.47;100.00;98122.72;5091232;28;20394;-74
2023/11/04 07:33:49;;;;;;;7.53;3.78;;;;;;;8.47;100.00;98124.50;5093475;28;20330;-75
2023/11/04 07:36:25;;;;;;;7.43;4.00;;;;;;;8.47;100.00;98127.13;5094337;28;20035;-75
2023/11/04 07:38:52;;;;;;;8.38;3.83;;;;;;;8.45;100.00;98128.06;5093856;28;20299;-75
2023/11/04 07:41:18;;;;;;;6.35;3.63;;;;;;;8.48;100.00;98134.84;5091093;28;20042;-75
2023/11/04 07:43:43;;;;;;;5.18;3.80;;;;;;;8.47;100.00;98127.13;5091523;28;20398;-75
2023/11/04 07:46:08;;;;;;;6.00;4.07;;;;;;;8.49;100.00;98120.84;5093018;28;20066;-75
2023/11/04 07:48:34;;;;;;;12.02;4.93;;;;;;;8.52;100.00;98123.22;5075113;28;20284;-75
2023/11/04 07:50:59;;;;;;;10.13;3.95;;;;;;;8.56;100.00;98106.38;5093984;28;20027;-74
2023/11/04 07:53:25;;;;;;;9.18;4.05;;;;;;;8.56;100.00;98106.38;5093521;28;20044;-75
2023/11/04 07:55:51;;;;;;;5.00;3.20;;;;;;;8.55;100.00;98101.28;5091591;28;20347;-75
2023/11/04 07:58:16;;;;;;;13.18;4.13;;;;;;;8.51;100.00;98097.25;5093944;28;20069;-75
2023/11/04 08:00:43;;;;;;;7.03;4.07;;;;;;;8.56;100.00;98087.31;5093364;28;20440;-75
2023/11/04 08:03:08;;;;;;;7.93;3.88;;;;;;;8.55;100.00;98070.81;5093302;28;20253;-75
2023/11/04 08:05:36;;;;;;;10.32;4.40;;;;;;;8.58;100.00;98069.75;5093576;28;20060;-75
2023/11/04 08:08:02;;;;;;;8.35;4.03;;;;;;;8.59;100.00;98080.06;5093961;28;20028;-75
2023/11/04 08:10:29;;;;;;;8.32;3.90;;;;;;;8.55;100.00;98068.22;5093179;28;20059;-75
2023/11/04 08:12:54;;;;;;;7.53;4.35;;;;;;;8.55;100.00;98070.81;5093804;28;20196;-75
2023/11/04 08:15:19;;;;;;;12.95;4.57;;;;;;;8.57;100.00;98066.31;5093059;28;20090;-75
2023/11/04 08:17:45;;;;;;;12.65;3.67;;;;;;;8.55;100.00;98054.31;5090994;28;20497;-75
2023/11/04 08:20:11;;;;;;;6.25;3.53;;;;;;;8.54;100.00;98043.06;5091320;28;20056;-75
2023/11/04 08:22:39;;;;;;;10.63;3.33;;;;;;;8.55;100.00;98039.53;5080756;28;20280;-74
2023/11/04 08:25:08;;;;;;;6.90;3.25;;;;;;;8.55;100.00;98036.91;5082217;28;20035;-75
2023/11/04 08:27:34;;;;;;;9.68;3.35;;;;;;;8.53;100.00;98023.16;5089952;28;20241;-75
2023/11/04 08:29:59;;;;;;;7.00;3.08;;;;;;;8.52;100.00;98015.44;5092083;28;20081;-75
2023/11/04 08:32:25;;;;;;;8.00;3.15;;;;;;;8.56;100.00;98009.88;5093100;28;20544;-75
2023/11/04 08:34:51;;;;;;;9.23;2.65;;;;;;;8.58;100.00;98010.56;5079439;28;20040;-75
2023/11/04 08:37:16;;;;;;;7.35;2.95;;;;;;;8.58;100.00;98002.75;5083770;28;20107;-75
2023/11/04 08:39:42;;;;;;;5.88;2.30;;;;;;;8.64;100.00;98001.44;5088902;28;20070;-75
2023/11/04 08:42:07;;;;;;;4.13;2.28;;;;;;;8.64;100.00;97991.84;5092271;28;20409;-75
2023/11/04 08:44:33;;;;;;;13.80;2.33;;;;;;;8.64;100.00;97991.84;5089696;28;20042;-75
2023/11/04 08:46:58;;;;;;;10.18;2.45;;;;;;;8.64;100.00;97986.63;5092359;28;20062;-75
2023/11/04 08:49:24;;;;;;;7.07;2.50;;;;;;;8.70;100.00;98000.16;5087304;28;20231;-75
2023/11/04 08:51:49;;;;;;;10.68;2.30;;;;;;;8.68;100.00;97989.84;5092585;28;20100;-75
2023/11/04 08:54:14;;;;;;;8.20;2.47;;;;;;;8.72;100.00;97990.41;5090162;28;20031;-75
2023/11/04 08:56:40;;;;;;;9.57;1.88;;;;;;;8.70;100.00;97993.16;5096588;28;20032;-74
2023/11/04 08:59:05;;;;;;;6.63;2.47;;;;;;;8.72;100.00;97985.19;5097390;28;20046;-75
2023/11/04 09:01:31;;;;;;;4.63;2.00;;;;;;;8.73;100.00;97977.25;5097146;28;20120;-75
2023/11/04 09:03:57;;;;;;;5.80;1.88;;;;;;;8.74;100.00;97976.28;5078726;28;20031;-75
2023/11/04 09:06:22;;;;;;;3.47;1.77;;;;;;;8.79;100.00;97973.34;5097248;28;20039;-75
2023/11/04 09:08:49;;;;;;;8.60;2.10;;;;;;;8.81;100.00;97964.41;5080438;28;20073;-75
2023/11/04 09:11:14;;;;;;;4.95;1.80;;;;;;;8.86;100.00;97955.38;5097150;28;20395;-75
2023/11/04 09:13:39;;;;;;;2.78;1.90;;;;;;;8.87;100.00;97960.50;5096545;28;20032;-75
2023/11/04 09:16:06;;;;;;;11.38;2.17;;;;;;;8.82;100.00;97950.44;5086675;28;20040;-75
2023/11/04 09:18:34;;;;;;;3.28;1.80;;;;;;;8.82;100.00;97937.38;5059880;28;20221;-75
2023/11/04 09:20:59;;;;;;;3.42;1.35;;;;;;;8.87;100.00;97944.84;5091517;28;20028;-75
2023/11/04 09:23:24;;;;;;;4.40;1.77;;;;;;;8.86;100.00;97939.72;5095643;28;20038;-75
2023/11/04 09:25:50;;;;;;;9.35;1.63;;;;;;;8.85;100.00;97941.53;5083028;28;20035;-75
2023/11/04 09:28:16;;;;;;;10.32;1.80;;;;;;;8.89;100.00;97931.66;5096656;28;20039;-75
2023/11/04 09:30:41;;;;;;;5.13;1.60;;;;;;;8.91;100.00;97922.75;5090770;28;20036;-75
2023/11/04 09:33:08;;;;;;;5.20;2.13;;;;;;;8.87;100.00;97910.91;5091414;28;20031;-75
2023/11/04 09:35:34;;;;;;;6.07;1.40;;;;;;;8.90;100.00;97920.28;5087706;28;20222;-75
2023/11/04 09:38:00;;;;;;;4.70;1.77;;;;;;;8.89;100.00;97903.78;5089214;28;20053;-75
2023/11/04 09:40:25;;;;;;;6.03;2.33;;;;;;;8.91;100.00;97903.66;5086475;28;20020;-75
2023/11/04 09:42:50;;;;;;;4.20;1.38;;;;;;;8.91;100.00;97899.25;5087452;28;20212;-75
2023/11/04 09:45:21;;;;;;;7.50;2.40;;;;;;;8.90;100.00;97896.81;5087213;28;20060;-74
2023/11/04 09:47:47;;;;;;;4.47;1.50;;;;;;;8.91;100.00;97891.44;5086870;28;20090;-75
2023/11/04 09:50:12;;;;;;;4.88;1.40;;;;;;;8.94;100.00;97883.38;5087931;28;20035;-75
2023/11/04 09:52:40;;;;;;;6.78;1.85;;;;;;;8.96;100.00;97880.63;5085453;28;20094;-75
2023/11/04 09:55:06;;;;;;;6.95;2.10;;;;;;;8.96;100.00;97868.41;5084287;28;20044;-75
2023/11/04 09:57:32;;;;;;;5.70;1.60;;;;;;;8.96;100.00;97867.59;5090611;28;20276;-75
2023/11/04 10:00:03;;;;;;;4.63;1.80;;;;;;;8.95;100.00;97856.31;5091974;28;20338;-75
2023/11/04 10:02:28;;;;;;;7.03;1.63;;;;;;;8.98;100.00;97850.81;5089358;28;20035;-75
2023/11/04 10:04:54;;;;;;;3.40;1.35;;;;;;;8.99;100.00;97844.66;5088241;28;20036;-75
2023/11/04 10:07:21;;;;;;;8.40;1.88;;;;;;;8.98;100.00;97836.97;5086469;28;20445;-75
2023/11/04 10:09:48;;;;;;;7.22;1.75;;;;;;;8.95;100.00;97830.22;5087265;28;20212;-75
2023/11/04 10:12:14;;;;;;;6.68;1.48;;;;;;;8.95;100.00;97831.97;5086124;28;20023;-75
2023/11/04 10:14:40;;;;;;;10.60;1.95;;;;;;;8.97;100.00;97827.50;5089066;28;20127;-75
2023/11/04 10:17:06;;;;;;;5.90;1.80;;;;;;;8.96;100.00;97818.81;5090211;28;20039;-75
2023/11/04 10:19:33;;;;;;;3.97;1.80;;;;;;;8.99;100.00;97815.97;5091423;28;20299;-75
2023/11/04 10:21:59;;;;;;;6.32;1.80;;;;;;;9.00;100.00;97804.56;5083293;28;20093;-75
2023/11/04 10:24:25;;;;;;;6.85;2.00;;;;;;;8.98;100.00;97798.63;5095021;28;20374;-75
2023/11/04 10:26:50;;;;;;;4.05;2.00;;;;;;;8.99;100.00;97789.03;5089072;28;20088;-75
2023/11/04 10:29:16;;;;;;;5.18;2.33;;;;;;;8.95;100.00;97788.47;5095246;28;20056;-75
2023/11/04 10:31:42;;;;;;;7.00;1.85;;;;;;;8.95;100.00;97783.25;5081712;28;20032;-75
2023/11/04 10:34:11;;;;;;;4.53;1.60;;;;;;;8.96;100.00;97773.63;5095063;28;20365;-75
2023/11/04 10:36:37;;;;;;;6.68;1.55;;;;;;;8.94;100.00;97770.31;5090249;28;20059;-75
2023/11/04 10:39:04;;;;;;;5.50;1.50;;;;;;;8.96;100.00;97764.00;5095365;28;20043;-75
2023/11/04 10:41:53;;;;;;;2.13;1.15;;;;;;;9.00;100.00;97754.97;5081629;28;20036;-75
2023/11/04 10:44:21;;;;;;;;;;;;;;;8.96;100.00;97747.53;5089366;28;20060;-74
2023/11/04 10:46:46;;;;;;;2.25;1.30;;;;;;;8.98;100.00;97753.44;5082704;28;20239;-75
2023/11/04 10:49:19;;;;;;;6.25;1.20;;;;;;;8.97;100.00;97743.97;5093128;28;20107;-75
2023/11/04 10:51:56;;;;;;;6.30;1.70;;;;;;;8.94;100.00;97721.53;5093000;28;20054;-75
2023/11/04 10:54:32;;;;;;;2.88;1.50;;;;;;;8.92;100.00;97712.19;5095158;28;20039;-75
2023/11/04 10:57:32;;;;;;;1.88;0.90;;;;;;;8.84;100.00;97699.78;5094247;28;20262;-75
2023/11/04 11:00:19;;;;;;;1.40;0.85;;;;;;;8.77;100.00;97704.69;5079642;28;20036;-75
2023/11/04 11:02:46;;;;;;;3.60;1.00;;;;;;;8.77;100.00;97685.59;5089008;28;20047;-75
2023/11/04 11:05:12;;;;;;;1.05;0.80;;;;;;;8.68;100.00;97686.34;5091080;28;20075;-75
2023/11/04 11:07:40;;;;;;;4.13;0.95;;;;;;;8.68;100.00;97665.47;5094678;28;20065;-75
2023/11/04 11:10:08;;;;;;;2.65;0.90;;;;;;;8.68;100.00;97660.25;5091096;28;20036;-75
2023/11/04 11:12:41;;;;;;;2.33;0.80;;;;;;;8.68;100.00;97642.00;5087503;28;20302;-75
2023/11/04 11:15:08;;;;;;;3.00;1.48;;;;;;;8.65;100.00;97636.09;5091591;28;20028;-75
2023/11/04 11:17:33;;;;;;;2.05;0.90;;;;;;;8.61;100.00;97629.47;5093544;28;20335;-75
2023/11/04 11:19:59;;;;;;;2.90;1.10;;;;;;;8.64;100.00;97626.63;5092686;28;20065;-75
2023/11/04 11:22:25;;;;;;;3.50;1.20;;;;;;;8.65;100.00;97612.59;5085155;28;20056;-75
2023/11/04 11:24:56;;;;;;;3.17;1.52;;;;;;;8.69;100.00;97607.13;5086297;28;20366;-75
2023/11/04 11:27:22;;;;;;;4.20;1.00;;;;;;;8.69;100.00;97594.09;5087189;28;20130;-75
2023/11/04 11:29:48;;;;;;;5.45;1.42;;;;;;;8.71;100.00;97590.38;5085827;28;20227;-75